sensor_id;sensor_type;location;lat;lon;timestamp;pressure;altitude;pressure_sealevel;temperature;humidity
77321;BME280;66382;52.252;8.780;2024-03-07T00:00:05;101685.22;;;6.32;63.92
77321;BME280;66382;52.252;8.780;2024-03-07T00:02:31;101679.75;;;6.34;63.98
77321;BME280;66382;52.252;8.780;2024-03-07T00:04:56;101681.31;;;6.36;63.75
77321;BME280;66382;52.252;8.780;2024-03-07T00:07:22;101689.16;;;6.38;63.44
77321;BME280;66382;52.252;8.780;2024-03-07T00:09:47;101685.66;;;6.37;63.46
77321;BME280;66382;52.252;8.780;2024-03-07T00:12:14;101684.94;;;6.35;63.50
77321;BME280;66382;52.252;8.780;2024-03-07T00:14:40;101679.88;;;6.32;63.55
77321;BME280;66382;52.252;8.780;2024-03-07T00:17:05;101677.38;;;6.31;63.58
77321;BME280;66382;52.252;8.780;2024-03-07T00:19:30;101677.59;;;6.28;63.75
77321;BME280;66382;52.252;8.780;2024-03-07T00:21:56;101682.09;;;6.27;63.86
77321;BME280;66382;52.252;8.780;2024-03-07T00:24:22;101673.53;;;6.23;63.56
77321;BME280;66382;52.252;8.780;2024-03-07T00:26:48;101677.03;;;6.24;63.28
77321;BME280;66382;52.252;8.780;2024-03-07T00:29:15;101678.00;;;6.23;63.46
77321;BME280;66382;52.252;8.780;2024-03-07T00:31:40;101678.16;;;6.21;63.49
77321;BME280;66382;52.252;8.780;2024-03-07T00:34:05;101683.75;;;6.18;63.51
77321;BME280;66382;52.252;8.780;2024-03-07T00:36:31;101683.16;;;6.15;63.50
77321;BME280;66382;52.252;8.780;2024-03-07T00:38:56;101690.13;;;6.06;63.59
77321;BME280;66382;52.252;8.780;2024-03-07T00:41:22;101682.78;;;5.98;63.89
77321;BME280;66382;52.252;8.780;2024-03-07T00:43:47;101686.03;;;5.91;63.82
77321;BME280;66382;52.252;8.780;2024-03-07T00:46:14;101676.75;;;5.85;63.71
77321;BME280;66382;52.252;8.780;2024-03-07T00:48:39;101678.94;;;5.80;63.19
77321;BME280;66382;52.252;8.780;2024-03-07T00:51:05;101684.66;;;5.75;63.79
77321;BME280;66382;52.252;8.780;2024-03-07T00:53:30;101682.53;;;5.69;63.61
77321;BME280;66382;52.252;8.780;2024-03-07T00:55:56;101684.84;;;5.63;63.94
77321;BME280;66382;52.252;8.780;2024-03-07T00:58:21;101676.66;;;5.54;63.85
77321;BME280;66382;52.252;8.780;2024-03-07T01:00:47;101670.72;;;5.51;64.17
77321;BME280;66382;52.252;8.780;2024-03-07T01:03:14;101671.09;;;5.46;63.93
77321;BME280;66382;52.252;8.780;2024-03-07T01:05:39;101680.81;;;5.36;64.12
77321;BME280;66382;52.252;8.780;2024-03-07T01:08:05;101679.75;;;5.27;64.02
77321;BME280;66382;52.252;8.780;2024-03-07T01:10:31;101684.47;;;5.24;64.18
77321;BME280;66382;52.252;8.780;2024-03-07T01:12:57;101676.50;;;5.24;63.95
77321;BME280;66382;52.252;8.780;2024-03-07T01:15:22;101679.28;;;5.22;64.53
77321;BME280;66382;52.252;8.780;2024-03-07T01:17:48;101675.78;;;5.22;64.60
77321;BME280;66382;52.252;8.780;2024-03-07T01:20:15;101678.69;;;5.18;64.53
77321;BME280;66382;52.252;8.780;2024-03-07T01:22:40;101676.16;;;5.17;63.95
77321;BME280;66382;52.252;8.780;2024-03-07T01:25:06;101672.31;;;5.10;64.28
77321;BME280;66382;52.252;8.780;2024-03-07T01:27:31;101670.75;;;5.07;64.47
77321;BME280;66382;52.252;8.780;2024-03-07T01:29:57;101667.38;;;5.05;64.33
77321;BME280;66382;52.252;8.780;2024-03-07T01:32:22;101666.75;;;5.02;64.42
77321;BME280;66382;52.252;8.780;2024-03-07T01:34:48;101665.44;;;4.96;64.68
77321;BME280;66382;52.252;8.780;2024-03-07T01:37:15;101666.66;;;4.92;65.31
77321;BME280;66382;52.252;8.780;2024-03-07T01:39:40;101658.81;;;4.90;64.75
77321;BME280;66382;52.252;8.780;2024-03-07T01:42:06;101660.75;;;4.88;64.93
77321;BME280;66382;52.252;8.780;2024-03-07T01:44:31;101658.19;;;4.87;65.26
77321;BME280;66382;52.252;8.780;2024-03-07T01:46:57;101654.84;;;4.85;64.74
77321;BME280;66382;52.252;8.780;2024-03-07T01:49:23;101658.44;;;4.84;64.55
77321;BME280;66382;52.252;8.780;2024-03-07T01:51:49;101663.19;;;4.80;64.76
77321;BME280;66382;52.252;8.780;2024-03-07T01:54:15;101653.66;;;4.78;64.99
77321;BME280;66382;52.252;8.780;2024-03-07T01:56:41;101649.16;;;4.78;64.39
77321;BME280;66382;52.252;8.780;2024-03-07T01:59:07;101650.97;;;4.78;64.73
77321;BME280;66382;52.252;8.780;2024-03-07T02:01:33;101653.75;;;4.76;64.67
77321;BME280;66382;52.252;8.780;2024-03-07T02:03:59;101661.97;;;4.73;65.03
77321;BME280;66382;52.252;8.780;2024-03-07T02:06:25;101656.91;;;4.70;65.20
77321;BME280;66382;52.252;8.780;2024-03-07T02:08:51;101654.47;;;4.67;65.43
77321;BME280;66382;52.252;8.780;2024-03-07T02:11:18;101648.56;;;4.63;65.42
77321;BME280;66382;52.252;8.780;2024-03-07T02:13:43;101648.81;;;4.60;65.00
77321;BME280;66382;52.252;8.780;2024-03-07T02:16:09;101638.56;;;4.56;64.93
77321;BME280;66382;52.252;8.780;2024-03-07T02:18:35;101643.50;;;4.60;65.31
77321;BME280;66382;52.252;8.780;2024-03-07T02:21:07;101643.38;;;4.62;64.71
77321;BME280;66382;52.252;8.780;2024-03-07T02:23:32;101637.59;;;4.57;65.12
77321;BME280;66382;52.252;8.780;2024-03-07T02:25:58;101639.50;;;4.55;64.85
77321;BME280;66382;52.252;8.780;2024-03-07T02:28:23;101640.38;;;4.55;64.71
77321;BME280;66382;52.252;8.780;2024-03-07T02:30:48;101639.66;;;4.53;64.85
77321;BME280;66382;52.252;8.780;2024-03-07T02:33:14;101643.25;;;4.52;65.04
77321;BME280;66382;52.252;8.780;2024-03-07T02:35:39;101634.56;;;4.50;65.39
77321;BME280;66382;52.252;8.780;2024-03-07T02:38:06;101639.38;;;4.45;65.40
77321;BME280;66382;52.252;8.780;2024-03-07T02:40:32;101633.97;;;4.46;65.33
77321;BME280;66382;52.252;8.780;2024-03-07T02:42:57;101636.72;;;4.45;64.82
77321;BME280;66382;52.252;8.780;2024-03-07T02:45:23;101633.38;;;4.43;65.26
77321;BME280;66382;52.252;8.780;2024-03-07T02:47:48;101632.50;;;4.42;65.32
77321;BME280;66382;52.252;8.780;2024-03-07T02:50:14;101634.56;;;4.39;65.50
77321;BME280;66382;52.252;8.780;2024-03-07T02:52:39;101630.00;;;4.41;65.73
77321;BME280;66382;52.252;8.780;2024-03-07T02:55:07;101632.28;;;4.34;65.22
77321;BME280;66382;52.252;8.780;2024-03-07T02:57:32;101629.72;;;4.32;65.05
77321;BME280;66382;52.252;8.780;2024-03-07T02:59:58;101626.13;;;4.34;65.48
77321;BME280;66382;52.252;8.780;2024-03-07T03:02:23;101622.38;;;4.36;65.12
77321;BME280;66382;52.252;8.780;2024-03-07T03:04:49;101620.94;;;4.32;65.20
77321;BME280;66382;52.252;8.780;2024-03-07T03:07:14;101626.38;;;4.30;65.59
77321;BME280;66382;52.252;8.780;2024-03-07T03:09:39;101633.13;;;4.23;64.98
77321;BME280;66382;52.252;8.780;2024-03-07T03:12:07;101623.69;;;4.19;64.76
77321;BME280;66382;52.252;8.780;2024-03-07T03:14:32;101623.81;;;4.18;65.63
77321;BME280;66382;52.252;8.780;2024-03-07T03:16:57;101623.94;;;4.16;65.80
77321;BME280;66382;52.252;8.780;2024-03-07T03:19:23;101625.97;;;4.13;65.56
77321;BME280;66382;52.252;8.780;2024-03-07T03:21:48;101622.38;;;4.14;65.48
77321;BME280;66382;52.252;8.780;2024-03-07T03:24:14;101618.00;;;4.13;65.44
77321;BME280;66382;52.252;8.780;2024-03-07T03:26:39;101615.25;;;4.14;65.33
77321;BME280;66382;52.252;8.780;2024-03-07T03:29:06;101620.06;;;4.09;65.00
77321;BME280;66382;52.252;8.780;2024-03-07T03:31:31;101629.38;;;4.03;65.36
77321;BME280;66382;52.252;8.780;2024-03-07T03:33:57;101631.53;;;3.98;66.33
77321;BME280;66382;52.252;8.780;2024-03-07T03:36:22;101616.16;;;3.91;65.85
77321;BME280;66382;52.252;8.780;2024-03-07T03:38:48;101618.13;;;3.88;65.15
77321;BME280;66382;52.252;8.780;2024-03-07T03:41:15;101620.88;;;3.87;65.28
77321;BME280;66382;52.252;8.780;2024-03-07T03:43:40;101614.97;;;3.83;65.19
77321;BME280;66382;52.252;8.780;2024-03-07T03:46:10;101611.94;;;3.88;65.46
77321;BME280;66382;52.252;8.780;2024-03-07T03:48:36;101611.09;;;3.87;64.90
77321;BME280;66382;52.252;8.780;2024-03-07T03:51:01;101616.56;;;3.86;64.96
77321;BME280;66382;52.252;8.780;2024-03-07T03:53:27;101610.63;;;3.82;65.49
77321;BME280;66382;52.252;8.780;2024-03-07T03:55:52;101610.63;;;3.82;65.36
77321;BME280;66382;52.252;8.780;2024-03-07T03:58:17;101617.09;;;3.78;65.82
77321;BME280;66382;52.252;8.780;2024-03-07T04:00:43;101621.81;;;3.75;65.14
77321;BME280;66382;52.252;8.780;2024-03-07T04:03:10;101609.75;;;3.71;65.36
77321;BME280;66382;52.252;8.780;2024-03-07T04:05:35;101608.31;;;3.66;65.45
77321;BME280;66382;52.252;8.780;2024-03-07T04:08:00;101611.06;;;3.65;65.03
77321;BME280;66382;52.252;8.780;2024-03-07T04:10:26;101612.88;;;3.64;65.61
77321;BME280;66382;52.252;8.780;2024-03-07T04:12:51;101608.66;;;3.62;65.04
77321;BME280;66382;52.252;8.780;2024-03-07T04:15:17;101609.72;;;3.59;65.99
77321;BME280;66382;52.252;8.780;2024-03-07T04:17:43;101609.00;;;3.57;65.94
77321;BME280;66382;52.252;8.780;2024-03-07T04:20:10;101605.59;;;3.55;65.85
77321;BME280;66382;52.252;8.780;2024-03-07T04:22:37;101603.19;;;3.52;65.49
77321;BME280;66382;52.252;8.780;2024-03-07T04:25:03;101611.16;;;3.52;65.74
77321;BME280;66382;52.252;8.780;2024-03-07T04:27:28;101602.34;;;3.52;66.09
77321;BME280;66382;52.252;8.780;2024-03-07T04:29:54;101609.47;;;3.51;65.68
77321;BME280;66382;52.252;8.780;2024-03-07T04:32:21;101604.28;;;3.50;66.03
77321;BME280;66382;52.252;8.780;2024-03-07T04:34:47;101602.78;;;3.45;66.01
77321;BME280;66382;52.252;8.780;2024-03-07T04:37:13;101603.63;;;3.46;66.51
77321;BME280;66382;52.252;8.780;2024-03-07T04:39:39;101606.41;;;3.44;66.15
77321;BME280;66382;52.252;8.780;2024-03-07T04:42:06;101613.16;;;3.49;66.70
77321;BME280;66382;52.252;8.780;2024-03-07T04:44:32;101599.56;;;3.53;66.02
77321;BME280;66382;52.252;8.780;2024-03-07T04:46:58;101599.56;;;3.53;66.38
77321;BME280;66382;52.252;8.780;2024-03-07T04:49:25;101598.50;;;3.56;66.27
77321;BME280;66382;52.252;8.780;2024-03-07T04:51:51;101611.53;;;3.59;65.93
77321;BME280;66382;52.252;8.780;2024-03-07T04:54:18;101609.59;;;3.61;66.01
77321;BME280;66382;52.252;8.780;2024-03-07T04:56:43;101602.38;;;3.63;66.04
77321;BME280;66382;52.252;8.780;2024-03-07T04:59:09;101601.44;;;3.64;65.87
77321;BME280;66382;52.252;8.780;2024-03-07T05:01:34;101603.94;;;3.65;66.05
77321;BME280;66382;52.252;8.780;2024-03-07T05:04:00;101603.84;;;3.67;65.99
77321;BME280;66382;52.252;8.780;2024-03-07T05:06:25;101598.28;;;3.70;66.44
77321;BME280;66382;52.252;8.780;2024-03-07T05:08:51;101611.56;;;3.70;65.83
77321;BME280;66382;52.252;8.780;2024-03-07T05:11:17;101611.69;;;3.69;65.99
77321;BME280;66382;52.252;8.780;2024-03-07T05:13:43;101607.97;;;3.71;66.24
77321;BME280;66382;52.252;8.780;2024-03-07T05:16:08;101612.28;;;3.72;66.42
77321;BME280;66382;52.252;8.780;2024-03-07T05:18:34;101609.97;;;3.67;66.10
77321;BME280;66382;52.252;8.780;2024-03-07T05:20:59;101615.28;;;3.67;66.48
77321;BME280;66382;52.252;8.780;2024-03-07T05:23:24;101619.41;;;3.72;67.09
77321;BME280;66382;52.252;8.780;2024-03-07T05:25:50;101619.66;;;3.69;66.76
77321;BME280;66382;52.252;8.780;2024-03-07T05:28:17;101618.44;;;3.73;67.43
77321;BME280;66382;52.252;8.780;2024-03-07T05:30:42;101625.81;;;3.80;67.26
77321;BME280;66382;52.252;8.780;2024-03-07T05:33:07;101624.38;;;3.87;66.78
77321;BME280;66382;52.252;8.780;2024-03-07T05:35:33;101636.09;;;3.96;67.29
77321;BME280;66382;52.252;8.780;2024-03-07T05:37:58;101636.47;;;4.03;67.41
77321;BME280;66382;52.252;8.780;2024-03-07T05:40:24;101635.63;;;4.02;66.72
77321;BME280;66382;52.252;8.780;2024-03-07T05:42:49;101636.47;;;4.03;66.83
77321;BME280;66382;52.252;8.780;2024-03-07T05:45:16;101640.09;;;4.02;66.65
77321;BME280;66382;52.252;8.780;2024-03-07T05:47:41;101641.06;;;4.01;66.73
77321;BME280;66382;52.252;8.780;2024-03-07T05:50:07;101638.41;;;4.01;66.62
77321;BME280;66382;52.252;8.780;2024-03-07T05:52:33;101639.25;;;4.01;67.16
77321;BME280;66382;52.252;8.780;2024-03-07T05:54:58;101638.41;;;4.01;66.46
77321;BME280;66382;52.252;8.780;2024-03-07T05:57:24;101640.78;;;3.93;66.73
77321;BME280;66382;52.252;8.780;2024-03-07T05:59:49;101646.31;;;3.90;67.32
77321;BME280;66382;52.252;8.780;2024-03-07T06:02:16;101651.75;;;3.88;67.36
77321;BME280;66382;52.252;8.780;2024-03-07T06:04:41;101656.09;;;3.89;66.87
77321;BME280;66382;52.252;8.780;2024-03-07T06:07:07;101649.09;;;3.88;67.48
77321;BME280;66382;52.252;8.780;2024-03-07T06:09:32;101661.16;;;3.81;67.47
77321;BME280;66382;52.252;8.780;2024-03-07T06:11:58;101643.53;;;3.80;67.38
77321;BME280;66382;52.252;8.780;2024-03-07T06:14:23;101659.53;;;3.78;67.87
77321;BME280;66382;52.252;8.780;2024-03-07T06:16:48;101659.69;;;3.77;67.75
77321;BME280;66382;52.252;8.780;2024-03-07T06:19:15;101653.88;;;3.72;67.30
77321;BME280;66382;52.252;8.780;2024-03-07T06:21:41;101663.16;;;3.77;67.83
77321;BME280;66382;52.252;8.780;2024-03-07T06:24:07;101658.38;;;3.82;67.80
77321;BME280;66382;52.252;8.780;2024-03-07T06:26:34;101664.66;;;3.81;66.94
77321;BME280;66382;52.252;8.780;2024-03-07T06:28:59;101653.75;;;3.73;67.42
77321;BME280;66382;52.252;8.780;2024-03-07T06:31:25;101657.38;;;3.72;67.63
77321;BME280;66382;52.252;8.780;2024-03-07T06:33:50;101656.88;;;3.67;67.46
77321;BME280;66382;52.252;8.780;2024-03-07T06:36:17;101657.94;;;3.64;67.21
77321;BME280;66382;52.252;8.780;2024-03-07T06:38:42;101666.25;;;3.60;67.37
77321;BME280;66382;52.252;8.780;2024-03-07T06:41:08;101671.06;;;3.55;67.77
77321;BME280;66382;52.252;8.780;2024-03-07T06:43:33;101672.34;;;3.49;67.44
77321;BME280;66382;52.252;8.780;2024-03-07T06:45:59;101669.31;;;3.42;67.63
77321;BME280;66382;52.252;8.780;2024-03-07T06:48:24;101669.88;;;3.35;67.98
77321;BME280;66382;52.252;8.780;2024-03-07T06:50:50;101674.19;;;3.36;68.06
77321;BME280;66382;52.252;8.780;2024-03-07T06:53:16;101666.06;;;3.39;67.99
77321;BME280;66382;52.252;8.780;2024-03-07T06:55:42;101659.78;;;3.40;68.36
77321;BME280;66382;52.252;8.780;2024-03-07T06:58:07;101664.59;;;3.46;68.29
77321;BME280;66382;52.252;8.780;2024-03-07T07:00:33;101665.00;;;3.53;68.12
77321;BME280;66382;52.252;8.780;2024-03-07T07:02:58;101660.34;;;3.56;68.62
77321;BME280;66382;52.252;8.780;2024-03-07T07:05:24;101651.06;;;3.62;68.56
77321;BME280;66382;52.252;8.780;2024-03-07T07:07:50;101657.38;;;3.72;68.64
77321;BME280;66382;52.252;8.780;2024-03-07T07:10:17;101647.03;;;3.80;68.65
77321;BME280;66382;52.252;8.780;2024-03-07T07:12:42;101647.41;;;3.87;68.97
77321;BME280;66382;52.252;8.780;2024-03-07T07:15:08;101642.59;;;3.92;68.56
77321;BME280;66382;52.252;8.780;2024-03-07T07:17:34;101649.13;;;3.99;68.12
77321;BME280;66382;52.252;8.780;2024-03-07T07:19:59;101654.69;;;4.07;68.94
77321;BME280;66382;52.252;8.780;2024-03-07T07:22:25;101656.25;;;4.10;68.36
77321;BME280;66382;52.252;8.780;2024-03-07T07:24:50;101653.00;;;4.06;68.83
77321;BME280;66382;52.252;8.780;2024-03-07T07:27:18;101653.25;;;4.03;67.99
77321;BME280;66382;52.252;8.780;2024-03-07T07:29:43;101648.03;;;4.02;68.52
77321;BME280;66382;52.252;8.780;2024-03-07T07:32:08;101662.28;;;4.01;68.15
77321;BME280;66382;52.252;8.780;2024-03-07T07:34:34;101648.88;;;4.02;68.50
77321;BME280;66382;52.252;8.780;2024-03-07T07:36:59;101662.88;;;4.04;68.55
77321;BME280;66382;52.252;8.780;2024-03-07T07:39:25;101649.72;;;4.03;68.42
77321;BME280;66382;52.252;8.780;2024-03-07T07:41:50;101643.56;;;4.02;68.42
77321;BME280;66382;52.252;8.780;2024-03-07T07:44:17;101654.81;;;4.06;68.79
77321;BME280;66382;52.252;8.780;2024-03-07T07:46:42;101647.81;;;4.05;68.83
77321;BME280;66382;52.252;8.780;2024-03-07T07:49:08;101644.41;;;4.03;68.52
77321;BME280;66382;52.252;8.780;2024-03-07T07:51:33;101647.06;;;4.03;68.71
77321;BME280;66382;52.252;8.780;2024-03-07T07:53:59;101640.09;;;4.02;68.28
77321;BME280;66382;52.252;8.780;2024-03-07T07:56:24;101639.59;;;3.97;68.17
77321;BME280;66382;52.252;8.780;2024-03-07T07:58:50;101633.56;;;3.95;68.94
77321;BME280;66382;52.252;8.780;2024-03-07T08:01:17;101632.72;;;3.94;68.61
77321;BME280;66382;52.252;8.780;2024-03-07T08:03:44;101620.63;;;3.90;68.94
77321;BME280;66382;52.252;8.780;2024-03-07T08:06:09;101619.81;;;3.90;69.06
77321;BME280;66382;52.252;8.780;2024-03-07T08:08:35;101622.44;;;3.90;68.71
77321;BME280;66382;52.252;8.780;2024-03-07T08:11:00;101623.78;;;3.95;69.46
77321;BME280;66382;52.252;8.780;2024-03-07T08:13:26;101617.38;;;3.98;69.50
77321;BME280;66382;52.252;8.780;2024-03-07T08:15:51;101617.38;;;3.98;69.56
77321;BME280;66382;52.252;8.780;2024-03-07T08:18:18;101621.63;;;4.00;69.40
77321;BME280;66382;52.252;8.780;2024-03-07T08:20:43;101625.50;;;4.07;69.76
77321;BME280;66382;52.252;8.780;2024-03-07T08:23:09;101618.88;;;4.13;69.54
77321;BME280;66382;52.252;8.780;2024-03-07T08:25:34;101627.19;;;4.20;69.67
77321;BME280;66382;52.252;8.780;2024-03-07T08:28:00;101622.16;;;4.28;69.38
77321;BME280;66382;52.252;8.780;2024-03-07T08:30:26;101625.16;;;4.35;69.76
77321;BME280;66382;52.252;8.780;2024-03-07T08:32:53;101629.38;;;4.37;69.72
77321;BME280;66382;52.252;8.780;2024-03-07T08:35:20;101632.66;;;4.41;69.63
77321;BME280;66382;52.252;8.780;2024-03-07T08:37:47;101631.41;;;4.45;69.25
77321;BME280;66382;52.252;8.780;2024-03-07T08:40:13;101634.81;;;4.47;69.91
77321;BME280;66382;52.252;8.780;2024-03-07T08:42:39;101632.16;;;4.47;69.01
77321;BME280;66382;52.252;8.780;2024-03-07T08:45:05;101633.38;;;4.43;68.99
77321;BME280;66382;52.252;8.780;2024-03-07T08:47:31;101634.69;;;4.37;69.21
77321;BME280;66382;52.252;8.780;2024-03-07T08:49:57;101638.78;;;4.30;69.45
77321;BME280;66382;52.252;8.780;2024-03-07T08:52:24;101632.38;;;4.32;70.29
77321;BME280;66382;52.252;8.780;2024-03-07T08:54:50;101626.88;;;4.36;69.62
77321;BME280;66382;52.252;8.780;2024-03-07T08:57:15;101628.91;;;4.43;69.50
77321;BME280;66382;52.252;8.780;2024-03-07T08:59:41;101630.22;;;4.49;69.60
77321;BME280;66382;52.252;8.780;2024-03-07T09:02:06;101618.50;;;4.51;69.36
77321;BME280;66382;52.252;8.780;2024-03-07T09:04:32;101620.09;;;4.54;70.01
77321;BME280;66382;52.252;8.780;2024-03-07T09:06:57;101617.19;;;4.57;69.54
77321;BME280;66382;52.252;8.780;2024-03-07T09:09:24;101617.19;;;4.57;69.80
77321;BME280;66382;52.252;8.780;2024-03-07T09:11:49;101620.69;;;4.58;69.93
77321;BME280;66382;52.252;8.780;2024-03-07T09:14:15;101619.13;;;4.55;69.83
77321;BME280;66382;52.252;8.780;2024-03-07T09:16:40;101613.56;;;4.47;69.48
77321;BME280;66382;52.252;8.780;2024-03-07T09:19:05;101610.81;;;4.48;69.16
77321;BME280;66382;52.252;8.780;2024-03-07T09:21:31;101618.63;;;4.50;69.12
77321;BME280;66382;52.252;8.780;2024-03-07T09:23:56;101609.59;;;4.41;70.22
77321;BME280;66382;52.252;8.780;2024-03-07T09:26:23;101615.16;;;4.38;69.74
77321;BME280;66382;52.252;8.780;2024-03-07T09:28:48;101616.97;;;4.38;70.15
77321;BME280;66382;52.252;8.780;2024-03-07T09:31:14;101608.28;;;4.36;70.65
77321;BME280;66382;52.252;8.780;2024-03-07T09:33:40;101609.13;;;4.36;70.50
77321;BME280;66382;52.252;8.780;2024-03-07T09:36:05;101599.22;;;4.38;70.62
77321;BME280;66382;52.252;8.780;2024-03-07T09:38:31;101608.75;;;4.41;70.29
77321;BME280;66382;52.252;8.780;2024-03-07T09:40:56;101606.09;;;4.41;70.35
77321;BME280;66382;52.252;8.780;2024-03-07T09:43:24;101616.47;;;4.44;70.39
77321;BME280;66382;52.252;8.780;2024-03-07T09:45:52;101616.47;;;4.44;70.36
77321;BME280;66382;52.252;8.780;2024-03-07T09:48:19;101613.56;;;4.47;70.16
77321;BME280;66382;52.252;8.780;2024-03-07T09:50:48;101615.97;;;4.50;70.88
77321;BME280;66382;52.252;8.780;2024-03-07T09:53:15;101608.63;;;4.53;70.75
77321;BME280;66382;52.252;8.780;2024-03-07T09:55:43;101613.31;;;4.61;70.19
77321;BME280;66382;52.252;8.780;2024-03-07T09:58:09;101615.97;;;4.61;71.01
77321;BME280;66382;52.252;8.780;2024-03-07T10:00:38;101614.66;;;4.56;71.00
77321;BME280;66382;52.252;8.780;2024-03-07T10:03:06;101608.38;;;4.57;70.26
77321;BME280;66382;52.252;8.780;2024-03-07T10:05:33;101613.81;;;4.55;71.11
77321;BME280;66382;52.252;8.780;2024-03-07T10:07:58;101619.13;;;4.55;70.80
77321;BME280;66382;52.252;8.780;2024-03-07T10:10:24;101615.97;;;4.61;70.71
77321;BME280;66382;52.252;8.780;2024-03-07T10:12:49;101623.34;;;4.69;70.73
77321;BME280;66382;52.252;8.780;2024-03-07T10:15:15;101625.88;;;4.70;70.66
77321;BME280;66382;52.252;8.780;2024-03-07T10:17:42;101618.50;;;4.74;70.67
77321;BME280;66382;52.252;8.780;2024-03-07T10:20:08;101616.66;;;4.74;70.48
77321;BME280;66382;52.252;8.780;2024-03-07T10:22:33;101616.81;;;4.73;71.75
77321;BME280;66382;52.252;8.780;2024-03-07T10:24:59;101614.16;;;4.73;71.05
77321;BME280;66382;52.252;8.780;2024-03-07T10:27:26;101611.97;;;4.78;70.57
77321;BME280;66382;52.252;8.780;2024-03-07T10:29:52;101607.97;;;4.84;71.07
77321;BME280;66382;52.252;8.780;2024-03-07T10:32:19;101609.88;;;4.93;71.62
77321;BME280;66382;52.252;8.780;2024-03-07T10:34:46;101607.69;;;4.98;70.99
77321;BME280;66382;52.252;8.780;2024-03-07T10:37:12;101607.16;;;5.15;71.34
77321;BME280;66382;52.252;8.780;2024-03-07T10:39:38;101607.34;;;5.35;72.09
77321;BME280;66382;52.252;8.780;2024-03-07T10:42:04;101607.63;;;5.53;71.79
77321;BME280;66382;52.252;8.780;2024-03-07T10:44:29;101603.91;;;5.65;71.26
77321;BME280;66382;52.252;8.780;2024-03-07T10:46:56;101598.94;;;5.72;71.43
77321;BME280;66382;52.252;8.780;2024-03-07T10:49:21;101590.16;;;5.81;71.38
77321;BME280;66382;52.252;8.780;2024-03-07T10:51:56;101602.56;;;5.92;70.95
77321;BME280;66382;52.252;8.780;2024-03-07T10:54:31;101604.59;;;5.99;71.30
77321;BME280;66382;52.252;8.780;2024-03-07T10:57:07;101599.16;;;6.01;70.95
77321;BME280;66382;52.252;8.780;2024-03-07T10:59:38;101594.22;;;5.96;70.50
77321;BME280;66382;52.252;8.780;2024-03-07T11:02:17;101595.31;;;5.94;70.61
77321;BME280;66382;52.252;8.780;2024-03-07T11:04:46;101590.22;;;5.91;70.50
77321;BME280;66382;52.252;8.780;2024-03-07T11:07:14;101598.13;;;5.81;70.59
77321;BME280;66382;52.252;8.780;2024-03-07T11:09:40;101589.84;;;5.74;70.81
77321;BME280;66382;52.252;8.780;2024-03-07T11:12:06;101597.84;;;5.74;70.59
77321;BME280;66382;52.252;8.780;2024-03-07T11:14:34;101593.63;;;5.72;71.00
77321;BME280;66382;52.252;8.780;2024-03-07T11:17:02;101589.00;;;5.74;71.16
77321;BME280;66382;52.252;8.780;2024-03-07T11:19:28;101588.75;;;5.77;71.05
77321;BME280;66382;52.252;8.780;2024-03-07T11:21:54;101590.16;;;5.81;70.95
77321;BME280;66382;52.252;8.780;2024-03-07T11:24:25;101585.53;;;5.83;70.71
77321;BME280;66382;52.252;8.780;2024-03-07T11:26:52;101587.97;;;5.86;71.65
77321;BME280;66382;52.252;8.780;2024-03-07T11:29:39;101574.88;;;5.94;70.94
77321;BME280;66382;52.252;8.780;2024-03-07T11:32:06;101587.63;;;6.00;71.25
77321;BME280;66382;52.252;8.780;2024-03-07T11:34:32;101578.88;;;6.10;71.42
77321;BME280;66382;52.252;8.780;2024-03-07T11:36:57;101578.78;;;6.21;71.47
77321;BME280;66382;52.252;8.780;2024-03-07T11:39:43;101578.84;;;6.31;70.90
77321;BME280;66382;52.252;8.780;2024-03-07T11:42:09;101567.63;;;6.37;71.04
77321;BME280;66382;52.252;8.780;2024-03-07T11:44:34;101574.41;;;6.51;71.58
77321;BME280;66382;52.252;8.780;2024-03-07T11:47:00;101562.50;;;6.64;71.04
77321;BME280;66382;52.252;8.780;2024-03-07T11:49:25;101560.28;;;6.79;70.73
77321;BME280;66382;52.252;8.780;2024-03-07T11:51:51;101559.34;;;6.90;71.30
77321;BME280;66382;52.252;8.780;2024-03-07T11:54:16;101556.25;;;6.95;71.03
77321;BME280;66382;52.252;8.780;2024-03-07T11:56:43;101554.28;;;6.97;70.28
77321;BME280;66382;52.252;8.780;2024-03-07T11:59:10;101547.28;;;6.96;70.44
77321;BME280;66382;52.252;8.780;2024-03-07T12:01:35;101549.66;;;6.89;70.25
77321;BME280;66382;52.252;8.780;2024-03-07T12:04:01;101550.22;;;6.93;71.09
77321;BME280;66382;52.252;8.780;2024-03-07T12:06:26;101538.88;;;7.00;69.85
77321;BME280;66382;52.252;8.780;2024-03-07T12:08:51;101540.97;;;7.06;70.54
77321;BME280;66382;52.252;8.780;2024-03-07T12:11:17;101530.72;;;7.11;69.75
77321;BME280;66382;52.252;8.780;2024-03-07T12:13:44;101531.28;;;7.15;70.05
77321;BME280;66382;52.252;8.780;2024-03-07T12:16:09;101523.28;;;7.25;70.22
77321;BME280;66382;52.252;8.780;2024-03-07T12:18:35;101519.06;;;7.32;69.84
77321;BME280;66382;52.252;8.780;2024-03-07T12:21:02;101521.16;;;7.38;70.14
77321;BME280;66382;52.252;8.780;2024-03-07T12:23:27;101520.59;;;7.44;69.86
77321;BME280;66382;52.252;8.780;2024-03-07T12:25:59;101521.28;;;7.46;69.88
77321;BME280;66382;52.252;8.780;2024-03-07T12:28:25;101511.16;;;7.50;69.29
77321;BME280;66382;52.252;8.780;2024-03-07T12:30:54;101510.34;;;7.49;69.45
77321;BME280;66382;52.252;8.780;2024-03-07T12:33:21;101507.66;;;7.59;69.39
77321;BME280;66382;52.252;8.780;2024-03-07T12:35:47;101498.91;;;7.67;70.13
77321;BME280;66382;52.252;8.780;2024-03-07T12:38:13;101496.66;;;7.72;69.01
77321;BME280;66382;52.252;8.780;2024-03-07T12:40:39;101497.19;;;7.75;69.06
77321;BME280;66382;52.252;8.780;2024-03-07T12:43:12;101492.25;;;7.81;68.75
77321;BME280;66382;52.252;8.780;2024-03-07T12:45:43;101486.91;;;7.81;69.94
77321;BME280;66382;52.252;8.780;2024-03-07T12:48:10;101485.91;;;7.91;69.54
77321;BME280;66382;52.252;8.780;2024-03-07T12:50:35;101481.81;;;7.97;68.89
77321;BME280;66382;52.252;8.780;2024-03-07T12:53:01;101480.09;;;7.96;68.15